sensor_id;sensor_type;location;lat;lon;timestamp;P1;durP1;ratioP1;P2;durP2;ratioP2
3337;SDS011;1682;49.286;10.788;2023-07-09T00:01:54;7.90;;;7.10;;
3337;SDS011;1682;49.286;10.788;2023-07-09T00:04:41;5.43;;;4.70;;
3337;SDS011;1682;49.286;10.788;2023-07-09T00:07:30;6.17;;;5.20;;
3337;SDS011;1682;49.286;10.788;2023-07-09T00:10:19;6.83;;;5.73;;
3337;SDS011;1682;49.286;10.788;2023-07-09T00:13:07;6.50;;;5.03;;
3337;SDS011;1682;49.286;10.788;2023-07-09T00:15:56;6.13;;;5.53;;
3337;SDS011;1682;49.286;10.788;2023-07-09T00:18:46;4.97;;;4.53;;
3337;SDS011;1682;49.286;10.788;2023-07-09T00:21:34;8.00;;;5.57;;
3337;SDS011;1682;49.286;10.788;2023-07-09T00:24:21;5.90;;;5.40;;
3337;SDS011;1682;49.286;10.788;2023-07-09T00:27:09;7.70;;;5.90;;
3337;SDS011;1682;49.286;10.788;2023-07-09T00:29:57;10.33;;;7.10;;
3337;SDS011;1682;49.286;10.788;2023-07-09T00:32:44;11.97;;;9.00;;
3337;SDS011;1682;49.286;10.788;2023-07-09T00:35:33;8.80;;;7.43;;
3337;SDS011;1682;49.286;10.788;2023-07-09T00:38:21;9.73;;;6.70;;
3337;SDS011;1682;49.286;10.788;2023-07-09T00:41:12;7.77;;;6.30;;
3337;SDS011;1682;49.286;10.788;2023-07-09T00:44:17;12.13;;;7.33;;
3337;SDS011;1682;49.286;10.788;2023-07-09T00:47:15;8.00;;;7.20;;
3337;SDS011;1682;49.286;10.788;2023-07-09T00:50:07;6.90;;;6.30;;
3337;SDS011;1682;49.286;10.788;2023-07-09T00:52:58;8.33;;;7.53;;
3337;SDS011;1682;49.286;10.788;2023-07-09T00:55:50;7.20;;;6.60;;
3337;SDS011;1682;49.286;10.788;2023-07-09T00:58:39;7.97;;;6.27;;
3337;SDS011;1682;49.286;10.788;2023-07-09T01:01:26;7.00;;;6.30;;
3337;SDS011;1682;49.286;10.788;2023-07-09T01:04:14;7.30;;;6.53;;
3337;SDS011;1682;49.286;10.788;2023-07-09T01:07:03;7.23;;;6.53;;
3337;SDS011;1682;49.286;10.788;2023-07-09T01:09:52;7.80;;;7.03;;
3337;SDS011;1682;49.286;10.788;2023-07-09T01:12:39;6.83;;;6.17;;
3337;SDS011;1682;49.286;10.788;2023-07-09T01:15:27;9.17;;;6.60;;
3337;SDS011;1682;49.286;10.788;2023-07-09T01:18:14;8.40;;;6.70;;
3337;SDS011;1682;49.286;10.788;2023-07-09T01:21:07;8.40;;;6.07;;
3337;SDS011;1682;49.286;10.788;2023-07-09T01:24:10;7.30;;;6.60;;
3337;SDS011;1682;49.286;10.788;2023-07-09T01:26:59;7.37;;;6.73;;
3337;SDS011;1682;49.286;10.788;2023-07-09T01:29:47;6.57;;;6.00;;
3337;SDS011;1682;49.286;10.788;2023-07-09T01:32:36;9.13;;;7.67;;
3337;SDS011;1682;49.286;10.788;2023-07-09T01:35:24;9.70;;;7.87;;
3337;SDS011;1682;49.286;10.788;2023-07-09T01:38:15;25.57;;;15.10;;
3337;SDS011;1682;49.286;10.788;2023-07-09T01:41:03;25.97;;;16.20;;
3337;SDS011;1682;49.286;10.788;2023-07-09T01:43:50;18.93;;;13.63;;
3337;SDS011;1682;49.286;10.788;2023-07-09T01:46:38;19.70;;;12.70;;
3337;SDS011;1682;49.286;10.788;2023-07-09T01:57:53;7.60;;;6.47;;
3337;SDS011;1682;49.286;10.788;2023-07-09T02:00:40;8.07;;;7.00;;
3337;SDS011;1682;49.286;10.788;2023-07-09T02:03:28;8.27;;;7.47;;
3337;SDS011;1682;49.286;10.788;2023-07-09T02:06:15;9.53;;;6.90;;
3337;SDS011;1682;49.286;10.788;2023-07-09T02:09:05;7.83;;;7.03;;
3337;SDS011;1682;49.286;10.788;2023-07-09T02:11:52;10.13;;;9.13;;
3337;SDS011;1682;49.286;10.788;2023-07-09T02:14:41;18.30;;;16.27;;
3337;SDS011;1682;49.286;10.788;2023-07-09T02:17:29;29.37;;;20.93;;
3337;SDS011;1682;49.286;10.788;2023-07-09T02:20:17;38.17;;;23.07;;
3337;SDS011;1682;49.286;10.788;2023-07-09T02:23:05;20.17;;;13.03;;
3337;SDS011;1682;49.286;10.788;2023-07-09T02:25:52;21.70;;;15.30;;
3337;SDS011;1682;49.286;10.788;2023-07-09T02:28:40;10.83;;;9.40;;
3337;SDS011;1682;49.286;10.788;2023-07-09T02:31:28;8.40;;;7.73;;
3337;SDS011;1682;49.286;10.788;2023-07-09T02:34:16;9.60;;;7.20;;
3337;SDS011;1682;49.286;10.788;2023-07-09T02:37:04;8.50;;;6.63;;
3337;SDS011;1682;49.286;10.788;2023-07-09T02:39:51;10.90;;;7.90;;
3337;SDS011;1682;49.286;10.788;2023-07-09T02:42:39;8.33;;;6.80;;
3337;SDS011;1682;49.286;10.788;2023-07-09T02:45:26;7.80;;;6.73;;
3337;SDS011;1682;49.286;10.788;2023-07-09T02:48:15;8.93;;;7.50;;
3337;SDS011;1682;49.286;10.788;2023-07-09T02:51:02;6.93;;;6.23;;
3337;SDS011;1682;49.286;10.788;2023-07-09T02:53:50;8.00;;;7.20;;
3337;SDS011;1682;49.286;10.788;2023-07-09T02:56:37;7.27;;;6.53;;
3337;SDS011;1682;49.286;10.788;2023-07-09T02:59:25;8.20;;;7.50;;
3337;SDS011;1682;49.286;10.788;2023-07-09T03:02:14;7.67;;;7.00;;
3337;SDS011;1682;49.286;10.788;2023-07-09T03:05:04;8.00;;;7.20;;
3337;SDS011;1682;49.286;10.788;2023-07-09T03:07:51;10.13;;;8.50;;
3337;SDS011;1682;49.286;10.788;2023-07-09T03:10:39;7.70;;;6.93;;
3337;SDS011;1682;49.286;10.788;2023-07-09T03:13:26;8.27;;;7.40;;
3337;SDS011;1682;49.286;10.788;2023-07-09T03:16:14;7.63;;;6.00;;
3337;SDS011;1682;49.286;10.788;2023-07-09T03:19:01;7.60;;;6.90;;
3337;SDS011;1682;49.286;10.788;2023-07-09T03:21:51;11.80;;;7.87;;
3337;SDS011;1682;49.286;10.788;2023-07-09T03:24:38;8.70;;;7.80;;
3337;SDS011;1682;49.286;10.788;2023-07-09T03:27:26;7.53;;;6.73;;
3337;SDS011;1682;49.286;10.788;2023-07-09T03:30:13;8.03;;;7.23;;
3337;SDS011;1682;49.286;10.788;2023-07-09T03:33:01;7.63;;;6.93;;
3337;SDS011;1682;49.286;10.788;2023-07-09T03:35:49;7.43;;;5.90;;
3337;SDS011;1682;49.286;10.788;2023-07-09T03:38:38;11.10;;;6.93;;
3337;SDS011;1682;49.286;10.788;2023-07-09T03:41:26;6.30;;;5.70;;
3337;SDS011;1682;49.286;10.788;2023-07-09T03:44:13;7.00;;;6.30;;
3337;SDS011;1682;49.286;10.788;2023-07-09T03:47:00;7.00;;;6.37;;
3337;SDS011;1682;49.286;10.788;2023-07-09T03:49:48;8.00;;;7.00;;
3337;SDS011;1682;49.286;10.788;2023-07-09T03:52:35;8.57;;;6.00;;
3337;SDS011;1682;49.286;10.788;2023-07-09T03:55:24;7.83;;;5.40;;
3337;SDS011;1682;49.286;10.788;2023-07-09T03:58:12;6.13;;;5.53;;
3337;SDS011;1682;49.286;10.788;2023-07-09T04:00:59;9.10;;;5.47;;
3337;SDS011;1682;49.286;10.788;2023-07-09T04:03:47;9.30;;;7.00;;
3337;SDS011;1682;49.286;10.788;2023-07-09T04:06:34;8.60;;;7.70;;
3337;SDS011;1682;49.286;10.788;2023-07-09T04:09:22;9.10;;;8.40;;
3337;SDS011;1682;49.286;10.788;2023-07-09T04:12:11;8.43;;;7.70;;
3337;SDS011;1682;49.286;10.788;2023-07-09T04:14:58;8.37;;;7.43;;
3337;SDS011;1682;49.286;10.788;2023-07-09T04:17:46;9.33;;;7.00;;
3337;SDS011;1682;49.286;10.788;2023-07-09T04:20:33;9.93;;;7.20;;
3337;SDS011;1682;49.286;10.788;2023-07-09T04:23:21;7.53;;;6.80;;
3337;SDS011;1682;49.286;10.788;2023-07-09T04:26:09;6.83;;;6.20;;
3337;SDS011;1682;49.286;10.788;2023-07-09T04:29:00;7.00;;;6.50;;
3337;SDS011;1682;49.286;10.788;2023-07-09T04:31:49;11.43;;;7.03;;
3337;SDS011;1682;49.286;10.788;2023-07-09T04:34:36;11.43;;;6.63;;
3337;SDS011;1682;49.286;10.788;2023-07-09T04:37:24;6.97;;;6.37;;
3337;SDS011;1682;49.286;10.788;2023-07-09T04:40:12;5.97;;;5.47;;
3337;SDS011;1682;49.286;10.788;2023-07-09T04:43:00;7.10;;;5.60;;
3337;SDS011;1682;49.286;10.788;2023-07-09T04:45:49;7.20;;;5.23;;
3337;SDS011;1682;49.286;10.788;2023-07-09T04:48:37;6.37;;;5.77;;
3337;SDS011;1682;49.286;10.788;2023-07-09T04:51:25;8.97;;;5.87;;
3337;SDS011;1682;49.286;10.788;2023-07-09T04:54:12;6.87;;;5.70;;
3337;SDS011;1682;49.286;10.788;2023-07-09T04:57:00;6.10;;;5.50;;
3337;SDS011;1682;49.286;10.788;2023-07-09T04:59:48;8.30;;;5.50;;
3337;SDS011;1682;49.286;10.788;2023-07-09T05:02:37;13.77;;;6.67;;
3337;SDS011;1682;49.286;10.788;2023-07-09T05:05:25;6.07;;;5.50;;
3337;SDS011;1682;49.286;10.788;2023-07-09T05:08:12;6.33;;;5.17;;
3337;SDS011;1682;49.286;10.788;2023-07-09T05:11:00;7.07;;;5.20;;
3337;SDS011;1682;49.286;10.788;2023-07-09T05:13:47;7.57;;;6.00;;
3337;SDS011;1682;49.286;10.788;2023-07-09T05:16:35;5.83;;;5.33;;
3337;SDS011;1682;49.286;10.788;2023-07-09T05:19:23;6.40;;;5.80;;
3337;SDS011;1682;49.286;10.788;2023-07-09T05:22:11;7.93;;;5.60;;
3337;SDS011;1682;49.286;10.788;2023-07-09T05:24:58;6.57;;;5.87;;
3337;SDS011;1682;49.286;10.788;2023-07-09T05:27:46;5.47;;;5.00;;
3337;SDS011;1682;49.286;10.788;2023-07-09T05:30:33;7.83;;;5.90;;
3337;SDS011;1682;49.286;10.788;2023-07-09T05:33:21;9.03;;;5.47;;
3337;SDS011;1682;49.286;10.788;2023-07-09T05:36:10;7.60;;;5.70;;
3337;SDS011;1682;49.286;10.788;2023-07-09T05:39:01;5.00;;;4.50;;
3337;SDS011;1682;49.286;10.788;2023-07-09T05:41:48;5.30;;;4.80;;
3337;SDS011;1682;49.286;10.788;2023-07-09T05:44:36;6.03;;;4.80;;
3337;SDS011;1682;49.286;10.788;2023-07-09T05:47:23;4.10;;;3.80;;
3337;SDS011;1682;49.286;10.788;2023-07-09T05:50:11;5.17;;;4.77;;
3337;SDS011;1682;49.286;10.788;2023-07-09T05:53:00;5.67;;;5.10;;
3337;SDS011;1682;49.286;10.788;2023-07-09T05:55:47;4.63;;;3.80;;
3337;SDS011;1682;49.286;10.788;2023-07-09T05:58:35;6.10;;;4.70;;
3337;SDS011;1682;49.286;10.788;2023-07-09T06:01:22;5.23;;;4.50;;
3337;SDS011;1682;49.286;10.788;2023-07-09T06:04:10;6.40;;;4.20;;
3337;SDS011;1682;49.286;10.788;2023-07-09T06:06:59;7.43;;;5.30;;
3337;SDS011;1682;49.286;10.788;2023-07-09T06:09:48;4.90;;;4.50;;
3337;SDS011;1682;49.286;10.788;2023-07-09T06:12:35;4.70;;;4.07;;
3337;SDS011;1682;49.286;10.788;2023-07-09T06:15:23;4.27;;;3.73;;
3337;SDS011;1682;49.286;10.788;2023-07-09T06:18:10;4.60;;;4.17;;
3337;SDS011;1682;49.286;10.788;2023-07-09T06:20:58;6.50;;;4.60;;
3337;SDS011;1682;49.286;10.788;2023-07-09T06:23:46;4.93;;;4.47;;
3337;SDS011;1682;49.286;10.788;2023-07-09T06:26:35;5.97;;;3.80;;
3337;SDS011;1682;49.286;10.788;2023-07-09T06:29:23;5.17;;;4.70;;
3337;SDS011;1682;49.286;10.788;2023-07-09T06:32:11;6.23;;;4.90;;
3337;SDS011;1682;49.286;10.788;2023-07-09T06:34:59;6.77;;;5.20;;
3337;SDS011;1682;49.286;10.788;2023-07-09T06:37:46;6.20;;;4.30;;
3337;SDS011;1682;49.286;10.788;2023-07-09T06:40:33;6.40;;;5.80;;
3337;SDS011;1682;49.286;10.788;2023-07-09T06:43:23;5.07;;;4.57;;
3337;SDS011;1682;49.286;10.788;2023-07-09T06:46:11;5.47;;;4.93;;
3337;SDS011;1682;49.286;10.788;2023-07-09T06:48:58;5.40;;;4.27;;
3337;SDS011;1682;49.286;10.788;2023-07-09T06:51:46;6.97;;;3.93;;
3337;SDS011;1682;49.286;10.788;2023-07-09T06:54:33;4.80;;;4.00;;
3337;SDS011;1682;49.286;10.788;2023-07-09T06:57:21;4.80;;;4.30;;
3337;SDS011;1682;49.286;10.788;2023-07-09T07:00:10;7.30;;;4.33;;
3337;SDS011;1682;49.286;10.788;2023-07-09T07:02:58;4.87;;;4.47;;
3337;SDS011;1682;49.286;10.788;2023-07-09T07:05:46;4.37;;;3.77;;
3337;SDS011;1682;49.286;10.788;2023-07-09T07:08:34;4.30;;;3.70;;
3337;SDS011;1682;49.286;10.788;2023-07-09T07:11:22;4.10;;;3.80;;
3337;SDS011;1682;49.286;10.788;2023-07-09T07:14:10;6.00;;;3.70;;
3337;SDS011;1682;49.286;10.788;2023-07-09T07:16:59;4.77;;;3.30;;
3337;SDS011;1682;49.286;10.788;2023-07-09T07:19:47;3.80;;;3.50;;
3337;SDS011;1682;49.286;10.788;2023-07-09T07:22:34;5.43;;;4.30;;
3337;SDS011;1682;49.286;10.788;2023-07-09T07:25:21;4.30;;;3.73;;
3337;SDS011;1682;49.286;10.788;2023-07-09T07:28:09;3.50;;;3.23;;
3337;SDS011;1682;49.286;10.788;2023-07-09T07:31:00;3.50;;;3.20;;
3337;SDS011;1682;49.286;10.788;2023-07-09T07:33:49;4.30;;;4.00;;
3337;SDS011;1682;49.286;10.788;2023-07-09T07:36:37;3.40;;;3.17;;
3337;SDS011;1682;49.286;10.788;2023-07-09T07:39:25;5.87;;;3.83;;
3337;SDS011;1682;49.286;10.788;2023-07-09T07:42:12;2.93;;;2.73;;
3337;SDS011;1682;49.286;10.788;2023-07-09T07:45:00;4.50;;;4.07;;
3337;SDS011;1682;49.286;10.788;2023-07-09T07:47:48;3.20;;;3.00;;
3337;SDS011;1682;49.286;10.788;2023-07-09T07:50:39;3.67;;;3.30;;
3337;SDS011;1682;49.286;10.788;2023-07-09T07:53:26;7.23;;;4.07;;
3337;SDS011;1682;49.286;10.788;2023-07-09T07:56:15;5.10;;;3.87;;
3337;SDS011;1682;49.286;10.788;2023-07-09T07:59:03;4.40;;;4.00;;
3337;SDS011;1682;49.286;10.788;2023-07-09T08:01:50;8.17;;;4.43;;
3337;SDS011;1682;49.286;10.788;2023-07-09T08:04:38;3.47;;;3.17;;
3337;SDS011;1682;49.286;10.788;2023-07-09T08:07:27;4.33;;;3.93;;
3337;SDS011;1682;49.286;10.788;2023-07-09T08:10:15;4.10;;;3.67;;
3337;SDS011;1682;49.286;10.788;2023-07-09T08:13:02;3.53;;;3.23;;
3337;SDS011;1682;49.286;10.788;2023-07-09T08:15:50;8.73;;;6.27;;
3337;SDS011;1682;49.286;10.788;2023-07-09T08:18:37;6.37;;;4.90;;
3337;SDS011;1682;49.286;10.788;2023-07-09T08:21:25;11.03;;;5.10;;
3337;SDS011;1682;49.286;10.788;2023-07-09T08:24:14;3.30;;;3.00;;
3337;SDS011;1682;49.286;10.788;2023-07-09T08:27:01;3.10;;;2.73;;
3337;SDS011;1682;49.286;10.788;2023-07-09T08:29:49;3.73;;;3.43;;
3337;SDS011;1682;49.286;10.788;2023-07-09T08:32:36;4.30;;;3.90;;
3337;SDS011;1682;49.286;10.788;2023-07-09T08:35:24;3.10;;;2.80;;
3337;SDS011;1682;49.286;10.788;2023-07-09T08:38:11;3.40;;;3.10;;
3337;SDS011;1682;49.286;10.788;2023-07-09T08:41:01;4.40;;;3.60;;
3337;SDS011;1682;49.286;10.788;2023-07-09T08:43:50;4.90;;;3.27;;
3337;SDS011;1682;49.286;10.788;2023-07-09T08:46:44;4.83;;;3.73;;
3337;SDS011;1682;49.286;10.788;2023-07-09T08:49:37;8.60;;;4.07;;
3337;SDS011;1682;49.286;10.788;2023-07-09T08:52:26;4.90;;;3.27;;
3337;SDS011;1682;49.286;10.788;2023-07-09T08:55:15;3.63;;;3.33;;
3337;SDS011;1682;49.286;10.788;2023-07-09T08:58:05;6.13;;;3.60;;
3337;SDS011;1682;49.286;10.788;2023-07-09T09:00:57;7.33;;;3.60;;
3337;SDS011;1682;49.286;10.788;2023-07-09T09:03:46;4.83;;;2.90;;
3337;SDS011;1682;49.286;10.788;2023-07-09T09:06:34;4.53;;;3.10;;
3337;SDS011;1682;49.286;10.788;2023-07-09T09:09:26;5.60;;;3.57;;
3337;SDS011;1682;49.286;10.788;2023-07-09T09:12:16;3.40;;;3.10;;
3337;SDS011;1682;49.286;10.788;2023-07-09T09:15:10;3.57;;;3.27;;
3337;SDS011;1682;49.286;10.788;2023-07-09T09:18:09;4.10;;;3.70;;
3337;SDS011;1682;49.286;10.788;2023-07-09T09:21:01;4.20;;;3.33;;
3337;SDS011;1682;49.286;10.788;2023-07-09T09:23:51;8.30;;;3.00;;
3337;SDS011;1682;49.286;10.788;2023-07-09T09:26:38;3.33;;;2.90;;
3337;SDS011;1682;49.286;10.788;2023-07-09T09:29:28;4.30;;;3.30;;
3337;SDS011;1682;49.286;10.788;2023-07-09T09:32:20;5.40;;;3.90;;
3337;SDS011;1682;49.286;10.788;2023-07-09T09:35:12;2.97;;;2.43;;
3337;SDS011;1682;49.286;10.788;2023-07-09T09:38:00;5.30;;;2.90;;
3337;SDS011;1682;49.286;10.788;2023-07-09T09:40:48;3.90;;;3.47;;
3337;SDS011;1682;49.286;10.788;2023-07-09T09:46:23;3.00;;;2.80;;
3337;SDS011;1682;49.286;10.788;2023-07-09T09:49:13;4.20;;;3.30;;
3337;SDS011;1682;49.286;10.788;2023-07-09T10:06:00;3.37;;;3.07;;
3337;SDS011;1682;49.286;10.788;2023-07-09T10:08:52;4.40;;;2.97;;
3337;SDS011;1682;49.286;10.788;2023-07-09T10:11:45;6.00;;;3.43;;
3337;SDS011;1682;49.286;10.788;2023-07-09T10:14:34;4.90;;;3.50;;
3337;SDS011;1682;49.286;10.788;2023-07-09T10:17:27;2.90;;;2.60;;
3337;SDS011;1682;49.286;10.788;2023-07-09T10:20:19;5.30;;;3.20;;
3337;SDS011;1682;49.286;10.788;2023-07-09T10:23:16;5.47;;;3.37;;
3337;SDS011;1682;49.286;10.788;2023-07-09T10:26:07;3.50;;;2.93;;
3337;SDS011;1682;49.286;10.788;2023-07-09T10:29:07;3.20;;;3.00;;
3337;SDS011;1682;49.286;10.788;2023-07-09T10:32:01;3.00;;;2.70;;
3337;SDS011;1682;49.286;10.788;2023-07-09T10:34:53;4.60;;;3.73;;
3337;SDS011;1682;49.286;10.788;2023-07-09T10:40:50;3.10;;;2.90;;
3337;SDS011;1682;49.286;10.788;2023-07-09T10:43:41;6.10;;;3.30;;
3337;SDS011;1682;49.286;10.788;2023-07-09T10:46:31;7.03;;;3.97;;
3337;SDS011;1682;49.286;10.788;2023-07-09T10:49:20;3.60;;;2.63;;
3337;SDS011;1682;49.286;10.788;2023-07-09T10:52:11;4.07;;;2.40;;
3337;SDS011;1682;49.286;10.788;2023-07-09T10:55:02;3.43;;;3.13;;
3337;SDS011;1682;49.286;10.788;2023-07-09T10:57:54;5.80;;;3.30;;
3337;SDS011;1682;49.286;10.788;2023-07-09T11:00:44;6.97;;;3.60;;
3337;SDS011;1682;49.286;10.788;2023-07-09T11:03:38;7.97;;;3.60;;
3337;SDS011;1682;49.286;10.788;2023-07-09T11:06:30;4.30;;;3.30;;
3337;SDS011;1682;49.286;10.788;2023-07-09T11:09:32;3.50;;;3.20;;
3337;SDS011;1682;49.286;10.788;2023-07-09T11:12:23;4.30;;;2.57;;
3337;SDS011;1682;49.286;10.788;2023-07-09T11:15:14;3.57;;;3.27;;
3337;SDS011;1682;49.286;10.788;2023-07-09T11:18:03;9.70;;;7.00;;
3337;SDS011;1682;49.286;10.788;2023-07-09T11:20:55;5.40;;;3.70;;
3337;SDS011;1682;49.286;10.788;2023-07-09T11:23:46;8.70;;;5.03;;
3337;SDS011;1682;49.286;10.788;2023-07-09T11:26:34;3.20;;;2.90;;
3337;SDS011;1682;49.286;10.788;2023-07-09T11:29:23;4.60;;;3.90;;
3337;SDS011;1682;49.286;10.788;2023-07-09T11:32:18;3.43;;;3.13;;
3337;SDS011;1682;49.286;10.788;2023-07-09T11:35:06;3.47;;;3.27;;
3337;SDS011;1682;49.286;10.788;2023-07-09T11:37:55;3.22;;;2.92;;
3337;SDS011;1682;49.286;10.788;2023-07-09T11:40:47;3.63;;;3.33;;
3337;SDS011;1682;49.286;10.788;2023-07-09T11:43:35;3.83;;;3.53;;
3337;SDS011;1682;49.286;10.788;2023-07-09T11:46:24;4.18;;;3.10;;
3337;SDS011;1682;49.286;10.788;2023-07-09T11:49:14;3.58;;;3.28;;
3337;SDS011;1682;49.286;10.788;2023-07-09T11:52:04;4.28;;;3.10;;
3337;SDS011;1682;49.286;10.788;2023-07-09T11:54:51;4.30;;;3.33;;
3337;SDS011;1682;49.286;10.788;2023-07-09T11:57:39;3.75;;;3.45;;
3337;SDS011;1682;49.286;10.788;2023-07-09T12:00:27;4.78;;;2.90;;
3337;SDS011;1682;49.286;10.788;2023-07-09T12:03:18;4.25;;;3.38;;
3337;SDS011;1682;49.286;10.788;2023-07-09T12:06:13;10.93;;;3.25;;
3337;SDS011;1682;49.286;10.788;2023-07-09T12:09:03;3.08;;;2.80;;
3337;SDS011;1682;49.286;10.788;2023-07-09T12:11:50;3.85;;;3.45;;
3337;SDS011;1682;49.286;10.788;2023-07-09T12:14:38;2.75;;;2.60;;
3337;SDS011;1682;49.286;10.788;2023-07-09T12:17:26;3.17;;;2.90;;
3337;SDS011;1682;49.286;10.788;2023-07-09T12:20:15;3.85;;;3.25;;
3337;SDS011;1682;49.286;10.788;2023-07-09T12:23:10;3.30;;;3.10;;
3337;SDS011;1682;49.286;10.788;2023-07-09T12:25:59;3.15;;;2.92;;
3337;SDS011;1682;49.286;10.788;2023-07-09T12:28:50;3.45;;;3.03;;
3337;SDS011;1682;49.286;10.788;2023-07-09T12:31:39;3.17;;;2.88;;
3337;SDS011;1682;49.286;10.788;2023-07-09T12:34:26;3.33;;;3.00;;
3337;SDS011;1682;49.286;10.788;2023-07-09T12:37:18;3.60;;;3.30;;
3337;SDS011;1682;49.286;10.788;2023-07-09T12:40:12;3.22;;;2.95;;
3337;SDS011;1682;49.286;10.788;2023-07-09T12:43:00;7.65;;;5.05;;
3337;SDS011;1682;49.286;10.788;2023-07-09T12:45:49;5.35;;;4.35;;
3337;SDS011;1682;49.286;10.788;2023-07-09T12:48:36;3.60;;;3.30;;
3337;SDS011;1682;49.286;10.788;2023-07-09T12:51:24;4.30;;;3.10;;
3337;SDS011;1682;49.286;10.788;2023-07-09T12:54:13;4.18;;;3.15;;
3337;SDS011;1682;49.286;10.788;2023-07-09T12:57:05;5.53;;;3.65;;
3337;SDS011;1682;49.286;10.788;2023-07-09T13:00:00;6.18;;;3.38;;
3337;SDS011;1682;49.286;10.788;2023-07-09T13:02:52;3.47;;;3.17;;
3337;SDS011;1682;49.286;10.788;2023-07-09T13:05:50;7.93;;;5.38;;
3337;SDS011;1682;49.286;10.788;2023-07-09T13:08:40;2.85;;;2.65;;
3337;SDS011;1682;49.286;10.788;2023-07-09T13:11:31;6.13;;;2.97;;
3337;SDS011;1682;49.286;10.788;2023-07-09T13:14:21;3.40;;;3.10;;
3337;SDS011;1682;49.286;10.788;2023-07-09T13:17:09;3.13;;;2.92;;
3337;SDS011;1682;49.286;10.788;2023-07-09T13:19:56;3.67;;;3.33;;
3337;SDS011;1682;49.286;10.788;2023-07-09T13:22:44;3.08;;;2.88;;
3337;SDS011;1682;49.286;10.788;2023-07-09T13:25:33;10.57;;;4.95;;
3337;SDS011;1682;49.286;10.788;2023-07-09T13:28:21;3.00;;;2.58;;
3337;SDS011;1682;49.286;10.788;2023-07-09T13:31:13;3.65;;;3.30;;
3337;SDS011;1682;49.286;10.788;2023-07-09T13:34:01;3.47;;;3.28;;
3337;SDS011;1682;49.286;10.788;2023-07-09T13:36:52;3.20;;;3.00;;
3337;SDS011;1682;49.286;10.788;2023-07-09T13:39:41;3.15;;;2.60;;
3337;SDS011;1682;49.286;10.788;2023-07-09T13:42:30;7.47;;;6.03;;
3337;SDS011;1682;49.286;10.788;2023-07-09T13:45:19;7.47;;;6.72;;
3337;SDS011;1682;49.286;10.788;2023-07-09T13:48:15;3.22;;;3.03;;
3337;SDS011;1682;49.286;10.788;2023-07-09T13:51:06;4.32;;;4.03;;
3337;SDS011;1682;49.286;10.788;2023-07-09T13:53:58;5.10;;;4.10;;
3337;SDS011;1682;49.286;10.788;2023-07-09T13:56:48;10.07;;;6.03;;
3337;SDS011;1682;49.286;10.788;2023-07-09T14:02:59;3.67;;;3.38;;
3337;SDS011;1682;49.286;10.788;2023-07-09T14:05:49;4.07;;;3.00;;
3337;SDS011;1682;49.286;10.788;2023-07-09T14:08:36;3.58;;;3.25;;
3337;SDS011;1682;49.286;10.788;2023-07-09T14:11:25;4.28;;;3.42;;
3337;SDS011;1682;49.286;10.788;2023-07-09T14:14:16;3.15;;;2.92;;
3337;SDS011;1682;49.286;10.788;2023-07-09T14:17:04;4.13;;;3.00;;
3337;SDS011;1682;49.286;10.788;2023-07-09T14:19:51;3.65;;;3.42;;
3337;SDS011;1682;49.286;10.788;2023-07-09T14:22:40;3.13;;;2.92;;
3337;SDS011;1682;49.286;10.788;2023-07-09T14:25:29;3.42;;;3.22;;
3337;SDS011;1682;49.286;10.788;2023-07-09T14:28:18;3.63;;;2.95;;
3337;SDS011;1682;49.286;10.788;2023-07-09T14:31:08;3.40;;;3.20;;
3337;SDS011;1682;49.286;10.788;2023-07-09T14:36:52;5.25;;;4.72;;
3337;SDS011;1682;49.286;10.788;2023-07-09T14:39:41;4.78;;;3.97;;
3337;SDS011;1682;49.286;10.788;2023-07-09T14:42:29;8.10;;;6.00;;
3337;SDS011;1682;49.286;10.788;2023-07-09T14:45:18;3.38;;;3.17;;
3337;SDS011;1682;49.286;10.788;2023-07-09T14:48:11;3.58;;;3.00;;
3337;SDS011;1682;49.286;10.788;2023-07-09T14:50:59;5.45;;;2.95;;
3337;SDS011;1682;49.286;10.788;2023-07-09T14:53:46;2.42;;;2.20;;
3337;SDS011;1682;49.286;10.788;2023-07-09T14:56:35;3.33;;;3.03;;
3337;SDS011;1682;49.286;10.788;2023-07-09T14:59:24;4.40;;;4.00;;
3337;SDS011;1682;49.286;10.788;2023-07-09T15:02:19;3.08;;;2.90;;
3337;SDS011;1682;49.286;10.788;2023-07-09T15:05:11;3.70;;;2.90;;
3337;SDS011;1682;49.286;10.788;2023-07-09T15:07:59;3.20;;;2.90;;
3337;SDS011;1682;49.286;10.788;2023-07-09T15:10:48;4.40;;;4.10;;
3337;SDS011;1682;49.286;10.788;2023-07-09T15:13:37;4.20;;;3.78;;
3337;SDS011;1682;49.286;10.788;2023-07-09T15:16:25;6.40;;;5.28;;
3337;SDS011;1682;49.286;10.788;2023-07-09T15:19:12;3.60;;;3.30;;
3337;SDS011;1682;49.286;10.788;2023-07-09T15:22:00;6.40;;;3.38;;
3337;SDS011;1682;49.286;10.788;2023-07-09T15:24:48;3.17;;;2.60;;
3337;SDS011;1682;49.286;10.788;2023-07-09T15:27:35;3.17;;;2.35;;
3337;SDS011;1682;49.286;10.788;2023-07-09T15:30:25;6.40;;;2.83;;
3337;SDS011;1682;49.286;10.788;2023-07-09T15:33:13;3.20;;;2.80;;
3337;SDS011;1682;49.286;10.788;2023-07-09T15:36:04;3.65;;;3.35;;
3337;SDS011;1682;49.286;10.788;2023-07-09T15:38:55;3.22;;;3.03;;
3337;SDS011;1682;49.286;10.788;2023-07-09T15:41:55;7.85;;;3.70;;
3337;SDS011;1682;49.286;10.788;2023-07-09T15:44:43;4.60;;;3.13;;
3337;SDS011;1682;49.286;10.788;2023-07-09T15:47:32;4.20;;;3.33;;
3337;SDS011;1682;49.286;10.788;2023-07-09T15:50:20;3.67;;;3.20;;
3337;SDS011;1682;49.286;10.788;2023-07-09T15:53:09;3.55;;;3.25;;
3337;SDS011;1682;49.286;10.788;2023-07-09T15:55:57;3.90;;;3.60;;
3337;SDS011;1682;49.286;10.788;2023-07-09T15:58:45;3.08;;;2.83;;
3337;SDS011;1682;49.286;10.788;2023-07-09T16:01:33;3.38;;;3.08;;
3337;SDS011;1682;49.286;10.788;2023-07-09T16:04:22;3.88;;;3.58;;
3337;SDS011;1682;49.286;10.788;2023-07-09T16:07:10;2.58;;;2.42;;
3337;SDS011;1682;49.286;10.788;2023-07-09T16:09:57;4.05;;;3.53;;
3337;SDS011;1682;49.286;10.788;2023-07-09T16:12:45;4.60;;;3.78;;
3337;SDS011;1682;49.286;10.788;2023-07-09T16:15:35;4.13;;;3.35;;
3337;SDS011;1682;49.286;10.788;2023-07-09T16:18:22;13.18;;;11.75;;
3337;SDS011;1682;49.286;10.788;2023-07-09T16:21:15;4.55;;;4.10;;
3337;SDS011;1682;49.286;10.788;2023-07-09T16:24:12;4.95;;;4.65;;
3337;SDS011;1682;49.286;10.788;2023-07-09T16:27:02;4.80;;;3.17;;
3337;SDS011;1682;49.286;10.788;2023-07-09T16:29:50;4.40;;;4.03;;
3337;SDS011;1682;49.286;10.788;2023-07-09T16:32:38;6.25;;;5.70;;
3337;SDS011;1682;49.286;10.788;2023-07-09T16:35:26;5.20;;;3.70;;
3337;SDS011;1682;49.286;10.788;2023-07-09T16:38:15;4.43;;;4.00;;
3337;SDS011;1682;49.286;10.788;2023-07-09T16:41:02;6.72;;;4.00;;
3337;SDS011;1682;49.286;10.788;2023-07-09T16:43:50;3.65;;;2.97;;
3337;SDS011;1682;49.286;10.788;2023-07-09T16:46:37;5.82;;;3.45;;
3337;SDS011;1682;49.286;10.788;2023-07-09T16:49:26;3.60;;;3.30;;
3337;SDS011;1682;49.286;10.788;2023-07-09T16:52:15;4.75;;;3.60;;
3337;SDS011;1682;49.286;10.788;2023-07-09T16:55:05;5.20;;;3.90;;
3337;SDS011;1682;49.286;10.788;2023-07-09T16:57:53;3.67;;;3.40;;
3337;SDS011;1682;49.286;10.788;2023-07-09T17:29:01;3.90;;;3.55;;
3337;SDS011;1682;49.286;10.788;2023-07-09T17:31:28;4.07;;;3.53;;
3337;SDS011;1682;49.286;10.788;2023-07-09T17:33:55;5.10;;;4.70;;
3337;SDS011;1682;49.286;10.788;2023-07-09T17:36:22;4.20;;;3.90;;
3337;SDS011;1682;49.286;10.788;2023-07-09T17:38:50;4.90;;;3.60;;
3337;SDS011;1682;49.286;10.788;2023-07-09T17:41:17;8.10;;;4.70;;
3337;SDS011;1682;49.286;10.788;2023-07-09T17:43:44;3.60;;;3.27;;
3337;SDS011;1682;49.286;10.788;2023-07-09T17:46:13;3.33;;;2.90;;
3337;SDS011;1682;49.286;10.788;2023-07-09T17:48:42;4.43;;;4.03;;
3337;SDS011;1682;49.286;10.788;2023-07-09T17:51:09;8.17;;;4.57;;
3337;SDS011;1682;49.286;10.788;2023-07-09T17:53:37;4.33;;;3.90;;
3337;SDS011;1682;49.286;10.788;2023-07-09T17:56:07;5.43;;;3.63;;
3337;SDS011;1682;49.286;10.788;2023-07-09T17:58:43;6.53;;;3.40;;
3337;SDS011;1682;49.286;10.788;2023-07-09T18:01:10;5.00;;;3.80;;
3337;SDS011;1682;49.286;10.788;2023-07-09T18:03:38;5.90;;;4.27;;
3337;SDS011;1682;49.286;10.788;2023-07-09T18:06:06;3.60;;;3.00;;
3337;SDS011;1682;49.286;10.788;2023-07-09T18:08:33;6.10;;;3.40;;
3337;SDS011;1682;49.286;10.788;2023-07-09T18:11:00;4.47;;;3.97;;